25 september 2022

Tijd Code Weer Temp. Zicht Plafond Wind METAR/SPECI
10:20
V
13 °C 10 km+ - 330° 330° 7 kt METAR EDLN 250820Z 33007KT CAVOK 13/10 Q1015
09:50
V
12 °C 10 km+ - 340° 340° 6 kt METAR EDLN 250750Z 34006KT CAVOK 12/10 Q1015
09:20
V
11 °C 10 km+ - 320° 320° 5 kt METAR EDLN 250720Z 32005KT CAVOK 11/10 Q1015
08:50
V
11 °C 10 km+ - 310° 310° 5 kt METAR EDLN 250650Z 31005KT CAVOK 11/10 Q1015
08:20
V
10 °C 10 km+ - 310° 310° 4 kt METAR EDLN 250620Z 31004KT CAVOK 10/09 Q1014
07:50
V
11 °C 10 km+ - 310° 310° 5 kt METAR EDLN 250550Z 31005KT CAVOK 11/10 Q1014
07:20
V
11 °C 10 km+ 7.400 ft 330° 330° 3 kt METAR EDLN 250520Z AUTO 33003KT 300V360 9999 // OVC074/// 11/10 Q1014
06:50
V
12 °C 10 km+ 7.400 ft 330° 330° 6 kt METAR EDLN 250450Z AUTO 33006KT 9999 // OVC074/// 12/10 Q1014
06:20
V
12 °C 10 km+ 7.600 ft 330° 330° 5 kt METAR EDLN 250420Z AUTO 33005KT 9999 // FEW066/// OVC076/// 12/10 Q1014
05:50
V
12 °C 10 km+ 5.900 ft 330° 330° 6 kt METAR EDLN 250350Z AUTO 33006KT 9999 // FEW044/// BKN059/// OVC077/// 12/10 Q1014
05:20
V
12 °C 10 km+ 3.500 ft 330° 330° 6 kt METAR EDLN 250320Z AUTO 33006KT 9999 // FEW009/// BKN035/// OVC046/// 12/11 Q1014
04:50
V
12 °C 10 km+ 3.300 ft 340° 340° 5 kt METAR EDLN 250250Z AUTO 34005KT 9999 // FEW029/// BKN033/// OVC039/// 12/11 Q1014
04:20
M
12 °C 10 km+ 2.600 ft 340° 340° 5 kt METAR EDLN 250220Z AUTO 34005KT 9999 // FEW008/// OVC026/// 12/11 Q1014
03:50
M
13 °C 10 km+ 2.900 ft 330° 330° 6 kt METAR EDLN 250150Z AUTO 33006KT 9999 // FEW011/// OVC029/// 13/11 Q1014
03:20
M
13 °C 10 km+ 2.700 ft 350° 350° 6 kt METAR EDLN 250120Z AUTO 35006KT 9999 // FEW010/// BKN027/// OVC036/// 13/11 Q1014
02:50
M
13 °C 10 km+ 2.300 ft 340° 340° 6 kt METAR EDLN 250050Z AUTO 34006KT 9999 // FEW010/// OVC023/// 13/11 Q1014
02:20
M
13 °C 10 km+ 1.900 ft 350° 350° 6 kt METAR EDLN 250020Z AUTO 35006KT 9999 // FEW010/// BKN019/// OVC042/// 13/11 Q1014
01:50
M
13 °C 10 km+ 1.000 ft 350° 350° 6 kt METAR EDLN 242350Z AUTO 35006KT 320V030 9999 // BKN010/// BKN012/// OVC019/// 13/11 Q1014
01:20
M
13 °C 8 km 1.900 ft 350° 350° 5 kt METAR EDLN 242320Z AUTO 35005KT 310V030 8000 // FEW008/// BKN019/// OVC025/// 13/12 Q1014
00:50
M
13 °C 10 km+ 1.100 ft 360° 360° 5 kt METAR EDLN 242250Z AUTO 36005KT 330V040 9999 // BKN011/// OVC016/// 13/12 Q1014
00:20
M
13 °C 10 km+ 1.400 ft 350° 350° 4 kt METAR EDLN 242220Z AUTO 35004KT 330V030 9999 // SCT009/// BKN014/// OVC020/// 13/12 Q1014

24 september 2022

Tijd Code Weer Temp. Zicht Plafond Wind METAR/SPECI
23:50
I
13 °C 10 km+ 700 ft 330° 330° 4 kt METAR EDLN 242150Z AUTO 33004KT 9999 // BKN007/// BKN013/// OVC037/// 13/12 Q1014
23:20
I
13 °C 10 km+ 800 ft 330° 330° 4 kt METAR EDLN 242120Z AUTO 33004KT 9999 // BKN008/// OVC015/// 13/12 Q1014
22:50
I
13 °C 10 km+ 900 ft 330° 330° 5 kt METAR EDLN 242050Z AUTO 33005KT 9999 // OVC009/// 13/12 Q1014
22:20
M
13 °C 10 km+ 1.000 ft 320° 320° 5 kt METAR EDLN 242020Z AUTO 32005KT 9999 // BKN010/// BKN045/// OVC068/// 13/11 Q1014
21:50
V
13 °C 10 km+ 3.100 ft 320° 320° 6 kt METAR EDLN 241950Z AUTO 32006KT 9999 // FEW012/// BKN031/// OVC047/// 13/11 Q1014
21:20
V
14 °C 9 km 3.900 ft 340° 340° 5 kt METAR EDLN 241920Z AUTO 34005KT 9000 // FEW012/// BKN039/// OVC051/// 14/12 Q1014
20:50
V
14 °C 10 km+ 4.600 ft 340° 340° 5 kt METAR EDLN 241850Z AUTO 34005KT 9999 // FEW026/// OVC046/// 14/12 Q1013
20:20
M
14 °C 10 km+ 2.400 ft 340° 340° 5 kt METAR EDLN 241820Z 34005KT 9999 SCT016 OVC024 14/12 Q1013
19:50
M
14 °C 10 km+ 2.000 ft 340° 340° 5 kt METAR EDLN 241750Z 34005KT 9999 -RA FEW014 BKN020 14/13 Q1013
19:20
M
15 °C 10 km+ 1.600 ft 020° 020° 4 kt METAR EDLN 241720Z 02004KT 9999 -RA BKN016 15/12 Q1013
18:50
V
15 °C 10 km+ - 350° 350° 3 kt METAR EDLN 241650Z 35003KT 9999 FEW018 SCT024 15/13 Q1013
18:20
V
15 °C 10 km+ - Var Var 2 kt METAR EDLN 241620Z VRB02KT CAVOK 15/13 Q1012
17:50
V
15 °C 10 km+ - Var Var 3 kt METAR EDLN 241550Z VRB03KT CAVOK 15/13 Q1012
17:20
V
15 °C 10 km+ - 060° 060° 3 kt METAR EDLN 241520Z 06003KT 9999 -RA SCT035 15/13 Q1012
16:50
V
16 °C 10 km+ 3.500 ft 050° 050° 3 kt METAR EDLN 241450Z 05003KT 9999 -RA SCT026 BKN035 16/12 Q1012
16:20
V
16 °C 10 km+ - Var Var 2 kt METAR EDLN 241420Z VRB02KT 9999 SCT026 16/11 Q1012
15:50
V
17 °C 10 km+ - Var 000° 0 kt METAR EDLN 241350Z 00000KT 9999 SCT035 17/11 Q1012
15:20
V
16 °C 10 km+ - 350° 350° 2 kt METAR EDLN 241320Z 35002KT 9999 FEW035 16/11 Q1012
14:50
V
16 °C 10 km+ - Var Var 1 kt METAR EDLN 241250Z VRB01KT 9999 FEW034 16/11 Q1012
14:20
V
16 °C 10 km+ - Var Var 2 kt METAR EDLN 241220Z VRB02KT 9999 FEW029 16/11 Q1012
13:50
V
16 °C 10 km+ - 320° 320° 5 kt METAR EDLN 241150Z 32005KT 9999 SCT029 16/11 Q1013
13:20
M
16 °C 10 km+ 2.900 ft 290° 290° 4 kt METAR EDLN 241120Z 29004KT 200V350 9999 FEW025 BKN029 16/12 Q1013
12:50
M
17 °C 10 km+ 2.900 ft 260° 260° 4 kt METAR EDLN 241050Z 26004KT 200V320 9999 BKN029 17/10 Q1013
12:20
V
17 °C 10 km+ - Var Var 1 kt METAR EDLN 241020Z VRB01KT 9999 SCT027 17/11 Q1013
11:50
V
17 °C 10 km+ - 150° 150° 3 kt METAR EDLN 240950Z 15003KT 090V220 9999 FEW049 17/11 Q1013
11:20
V
16 °C 10 km+ - 130° 130° 3 kt METAR EDLN 240920Z 13003KT 080V190 9999 FEW047 16/12 Q1013
10:50
V
15 °C 10 km+ - Var Var 2 kt METAR EDLN 240850Z VRB02KT CAVOK 15/12 Q1013
10:20
V
14 °C 10 km+ - Var Var 2 kt METAR EDLN 240820Z VRB02KT CAVOK 14/12 Q1013
09:50
V
14 °C 10 km+ - Var Var 2 kt METAR EDLN 240750Z VRB02KT CAVOK 14/12 Q1012
09:20
V
14 °C 10 km+ - Var Var 1 kt METAR EDLN 240720Z VRB01KT 9999 FEW039 14/12 Q1012
08:50
V
13 °C 10 km+ - Var Var 1 kt METAR EDLN 240650Z VRB01KT 9999 FEW035 13/11 Q1012
08:20
V
12 °C 10 km+ - 160° 160° 2 kt METAR EDLN 240620Z 16002KT 9999 -RA NSC 12/11 Q1012
07:50
V
12 °C 10 km+ - Var Var 2 kt METAR EDLN 240550Z VRB02KT CAVOK 12/11 Q1012
07:20
V
12 °C 10 km+ 6.500 ft 180° 180° 2 kt METAR EDLN 240520Z AUTO 18002KT 9999 // FEW048/// BKN065/// BKN084/// 12/11 Q1012
06:50
V
12 °C 10 km+ 9.200 ft Var Var 2 kt METAR EDLN 240450Z AUTO VRB02KT 9999 // FEW067/// BKN092/// 12/11 Q1012
06:20
V
11 °C 10 km+ 11.000 ft Var Var 1 kt METAR EDLN 240420Z AUTO VRB01KT 9999 // FEW073/// BKN110/// BKN150/// 11/11 Q1012
05:50
V
12 °C 10 km+ 12.000 ft Var Var 2 kt METAR EDLN 240350Z AUTO VRB02KT 9999 // FEW045/// SCT100/// BKN120/// 12/11 Q1012
05:20
V
11 °C 10 km+ 9.100 ft Var Var 1 kt METAR EDLN 240320Z AUTO VRB01KT 9999 // FEW046/// BKN091/// OVC150/// 11/11 Q1012
04:50
V
12 °C 10 km+ 9.200 ft 100° 100° 2 kt METAR EDLN 240250Z AUTO 10002KT 9999 // FEW053/// BKN092/// OVC150/// 12/11 Q1012
04:20
V
12 °C 10 km+ 5.700 ft Var Var 1 kt METAR EDLN 240220Z AUTO VRB01KT 9999 // FEW047/// BKN057/// OVC170/// 12/11 Q1013
03:50
V
12 °C 10 km+ 5.700 ft 140° 140° 1 kt METAR EDLN 240150Z AUTO 14001KT 9999 // BKN057/// OVC110/// 12/11 Q1013
03:20
V
12 °C 10 km+ 6.000 ft Var Var 1 kt METAR EDLN 240120Z AUTO VRB01KT 9999 // BKN060/// BKN097/// OVC110/// 12/11 Q1013
02:50
V
12 °C 10 km+ 8.300 ft Var Var 1 kt METAR EDLN 240050Z AUTO VRB01KT 9999 // SCT065/// BKN083/// OVC110/// 12/11 Q1013
02:20
V
12 °C 10 km+ 7.700 ft 200° 200° 1 kt METAR EDLN 240020Z AUTO 20001KT 9999 // FEW058/// OVC077/// 12/11 Q1013
01:50
V
12 °C 10 km+ 6.900 ft Var 000° 0 kt METAR EDLN 232350Z AUTO 00000KT 9999 // SCT059/// BKN069/// OVC080/// 12/11 Q1013
01:20
V
13 °C 10 km+ 5.800 ft Var Var 2 kt METAR EDLN 232320Z AUTO VRB02KT 9999 // FEW047/// OVC058/// 13/11 Q1014
00:50
V
13 °C 10 km+ 5.900 ft Var Var 2 kt METAR EDLN 232250Z AUTO VRB02KT 9999 // FEW032/// BKN059/// OVC160/// 13/11 Q1014
00:20
V
14 °C 10 km+ 8.900 ft 290° 290° 4 kt METAR EDLN 232220Z AUTO 29004KT 250V310 9999 // FEW032/// OVC089/// 14/11 Q1014

23 september 2022

Tijd Code Weer Temp. Zicht Plafond Wind METAR/SPECI
23:50
V
13 °C 10 km+ 10.000 ft Var Var 2 kt METAR EDLN 232150Z AUTO VRB02KT 9999 // SCT032/// SCT041/// OVC100/// 13/11 Q1014
23:20
V
12 °C 10 km+ 11.000 ft 150° 150° 1 kt METAR EDLN 232120Z AUTO 15001KT 9999 // SCT040/// BKN110/// OVC130/// 12/11 Q1014
22:50
V
12 °C 10 km+ 13.000 ft 110° 110° 2 kt METAR EDLN 232050Z AUTO 11002KT 9999 // OVC130/// 12/11 Q1014
22:20
V
12 °C 10 km+ 13.000 ft Var 000° 0 kt METAR EDLN 232020Z AUTO 00000KT 9999 // FEW046/// OVC130/// 12/11 Q1014
21:50
V
13 °C 10 km+ 4.200 ft 140° 140° 1 kt METAR EDLN 231950Z AUTO 14001KT 9999 // BKN042/// OVC120/// 13/11 Q1014
21:20
V
13 °C 10 km+ 4.500 ft 140° 140° 1 kt METAR EDLN 231920Z AUTO 14001KT 9999 // BKN045/// OVC130/// 13/11 Q1014
20:50
V
12 °C 10 km+ 15.000 ft 110° 110° 1 kt METAR EDLN 231850Z AUTO 11001KT 9999 // FEW046/// OVC150/// 12/11 Q1014
20:20
V
12 °C 10 km+ - 120° 120° 1 kt METAR EDLN 231820Z 12001KT CAVOK 12/10 Q1014
19:50
V
13 °C 10 km+ - Var 000° 0 kt METAR EDLN 231750Z 00000KT CAVOK 13/11 Q1014
19:20
V
15 °C 10 km+ - Var Var 1 kt METAR EDLN 231720Z VRB01KT CAVOK 15/10 Q1014
18:50
V
16 °C 10 km+ - Var Var 2 kt METAR EDLN 231650Z VRB02KT CAVOK 16/09 Q1014
18:20
V
16 °C 10 km+ - Var Var 2 kt METAR EDLN 231620Z VRB02KT CAVOK 16/09 Q1014
17:50
V
17 °C 10 km+ - 230° 230° 3 kt METAR EDLN 231550Z 23003KT 180V290 CAVOK 17/08 Q1014
17:20
V
17 °C 10 km+ - 210° 210° 3 kt METAR EDLN 231520Z 21003KT 160V270 CAVOK 17/08 Q1014
16:50
V
18 °C 10 km+ - 200° 200° 4 kt METAR EDLN 231450Z 20004KT 170V250 CAVOK 18/08 Q1015
16:20
V
18 °C 10 km+ - 200° 200° 5 kt METAR EDLN 231420Z 20005KT 140V240 CAVOK 18/08 Q1015
15:50
V
18 °C 10 km+ - 230° 230° 3 kt METAR EDLN 231350Z 23003KT 190V270 CAVOK 18/08 Q1015
15:20
V
17 °C 10 km+ - 220° 220° 4 kt METAR EDLN 231320Z 22004KT 180V270 CAVOK 17/08 Q1015
14:50
V
18 °C 10 km+ - 220° 220° 4 kt METAR EDLN 231250Z 22004KT 170V250 CAVOK 18/08 Q1015
14:20
V
18 °C 10 km+ - 160° 160° 3 kt METAR EDLN 231220Z 16003KT 110V230 CAVOK 18/08 Q1015
13:50
V
18 °C 10 km+ - 190° 190° 3 kt METAR EDLN 231150Z 19003KT CAVOK 18/08 Q1016
13:20
V
18 °C 10 km+ - 170° 170° 4 kt METAR EDLN 231120Z 17004KT 110V220 CAVOK 18/08 Q1016
12:50
V
17 °C 10 km+ - 150° 150° 3 kt METAR EDLN 231050Z 15003KT 100V240 CAVOK 17/09 Q1016
12:20
V
16 °C 10 km+ - Var Var 3 kt METAR EDLN 231020Z VRB03KT CAVOK 16/09 Q1016
11:50
V
14 °C 10 km+ - 130° 130° 4 kt METAR EDLN 230950Z 13004KT 090V210 CAVOK 14/09 Q1017
11:20
V
13 °C 10 km+ - Var Var 2 kt METAR EDLN 230920Z VRB02KT CAVOK 13/09 Q1017
10:50
V
13 °C 10 km+ - 140° 140° 3 kt METAR EDLN 230850Z 14003KT 100V190 CAVOK 13/08 Q1017
Oudere gegevens

Met cookies volgen wij en derde partijen jouw internetgedrag binnen onze site. Als je verdergaat gaan we ervan uit dat je dit goedvindt. Meer info